createdAt,value
2023-09-09T00:00:51.165Z,12.88
2023-09-09T00:03:20.279Z,12.80
2023-09-09T00:05:49.800Z,12.63
2023-09-09T00:08:20.408Z,13.10
2023-09-09T00:10:49.339Z,12.02
2023-09-09T00:13:18.427Z,12.68
2023-09-09T00:15:46.803Z,12.73
2023-09-09T00:18:15.247Z,12.40
2023-09-09T00:20:43.553Z,13.35
2023-09-09T00:23:13.915Z,13.80
2023-09-09T00:25:43.854Z,13.07
2023-09-09T00:28:15.269Z,13.25
2023-09-09T00:30:44.290Z,13.13
2023-09-09T00:33:12.915Z,13.77
2023-09-09T00:35:41.762Z,13.40
2023-09-09T00:38:13.323Z,13.73
2023-09-09T00:40:45.637Z,12.88
2023-09-09T00:43:14.381Z,14.10
2023-09-09T00:45:42.776Z,13.65
2023-09-09T00:48:11.211Z,12.77
2023-09-09T00:50:39.763Z,12.52
2023-09-09T00:53:08.244Z,12.38
2023-09-09T00:55:40.664Z,12.93
2023-09-09T00:58:09.460Z,13.98
2023-09-09T01:00:39.620Z,12.88
2023-09-09T01:03:10.453Z,13.45
2023-09-09T01:05:40.059Z,12.75
2023-09-09T01:08:08.653Z,12.80
2023-09-09T01:10:38.769Z,13.75
2023-09-09T01:13:07.465Z,12.27
2023-09-09T01:15:35.836Z,13.07
2023-09-09T01:18:05.257Z,13.15
2023-09-09T01:20:40.398Z,14.55
2023-09-09T01:23:10.030Z,14.27
2023-09-09T01:25:38.359Z,13.27
2023-09-09T01:28:07.223Z,14.10
2023-09-09T01:30:35.636Z,13.07
2023-09-09T01:33:04.408Z,13.23
2023-09-09T01:35:34.013Z,13.70
2023-09-09T01:38:02.581Z,14.43
2023-09-09T01:40:32.071Z,14.77
2023-09-09T01:43:01.281Z,13.00
2023-09-09T01:45:29.698Z,13.75
2023-09-09T01:47:58.480Z,14.40
2023-09-09T01:50:26.899Z,14.30
2023-09-09T01:52:55.568Z,13.32
2023-09-09T01:55:24.003Z,14.00
2023-09-09T01:57:53.666Z,13.13
2023-09-09T02:00:21.960Z,13.57
2023-09-09T02:02:50.506Z,13.15
2023-09-09T02:05:19.312Z,13.00
2023-09-09T02:07:47.615Z,13.10
2023-09-09T02:10:15.856Z,13.48
2023-09-09T02:12:44.388Z,14.57
2023-09-09T02:15:14.507Z,15.00
2023-09-09T02:17:42.916Z,14.02
2023-09-09T02:20:14.862Z,14.25
2023-09-09T02:22:43.500Z,13.18
2023-09-09T02:25:11.919Z,15.20
2023-09-09T02:27:40.445Z,13.88
2023-09-09T02:30:10.079Z,13.48
2023-09-09T02:32:40.673Z,14.48
2023-09-09T02:35:09.809Z,13.95
2023-09-09T02:37:38.136Z,14.38
2023-09-09T02:40:07.210Z,14.25
2023-09-09T02:42:36.241Z,14.40
2023-09-09T02:45:05.209Z,14.35
2023-09-09T02:47:33.617Z,13.68
2023-09-09T02:50:03.020Z,13.90
2023-09-09T02:52:31.442Z,13.40
2023-09-09T02:54:59.915Z,13.80
2023-09-09T02:57:28.252Z,14.55
2023-09-09T02:59:56.776Z,14.27
2023-09-09T03:02:25.355Z,15.82
2023-09-09T03:04:53.832Z,14.93
2023-09-09T03:07:24.106Z,15.20
2023-09-09T03:09:52.726Z,14.85
2023-09-09T03:12:22.440Z,13.73
2023-09-09T03:14:50.956Z,14.50
2023-09-09T03:17:20.022Z,13.90
2023-09-09T03:19:52.009Z,13.43
2023-09-09T03:22:20.299Z,14.95
2023-09-09T03:24:50.127Z,14.95
2023-09-09T03:27:18.472Z,13.90
2023-09-09T03:29:46.870Z,14.93
2023-09-09T03:32:15.829Z,14.35
2023-09-09T03:34:44.458Z,15.63
2023-09-09T03:37:13.066Z,14.60
2023-09-09T03:39:43.374Z,15.00
2023-09-09T03:42:13.621Z,15.75
2023-09-09T03:44:42.065Z,14.90
2023-09-09T03:47:10.348Z,15.75
2023-09-09T03:49:38.587Z,16.42
2023-09-09T03:52:07.116Z,16.40
2023-09-09T03:54:37.430Z,15.73
2023-09-09T03:57:05.952Z,15.38
2023-09-09T03:59:35.572Z,16.75
2023-09-09T04:02:03.969Z,16.13
2023-09-09T04:04:33.564Z,16.08
2023-09-09T04:07:02.305Z,16.00
2023-09-09T04:09:30.832Z,15.23
2023-09-09T04:11:59.222Z,15.40
2023-09-09T04:14:27.703Z,15.00
2023-09-09T04:16:57.198Z,15.35
2023-09-09T04:19:29.339Z,15.55
2023-09-09T04:21:58.369Z,15.45
2023-09-09T04:24:26.641Z,15.95
2023-09-09T04:26:57.681Z,15.38
2023-09-09T04:29:26.438Z,15.85
2023-09-09T04:31:55.091Z,15.40
2023-09-09T04:34:25.998Z,15.18
2023-09-09T04:36:54.356Z,15.20
2023-09-09T04:39:23.422Z,16.00
2023-09-09T04:41:52.050Z,16.60
2023-09-09T04:44:21.223Z,16.45
2023-09-09T04:46:50.514Z,16.05
2023-09-09T04:49:19.482Z,17.20
2023-09-09T04:51:49.344Z,16.00
2023-09-09T04:54:19.665Z,17.05
2023-09-09T04:56:49.068Z,16.45
2023-09-09T04:59:17.628Z,16.35
2023-09-09T05:01:45.976Z,15.68
2023-09-09T05:04:14.311Z,15.13
2023-09-09T05:06:42.667Z,15.98
2023-09-09T05:09:17.630Z,16.45
2023-09-09T05:11:46.077Z,17.00
2023-09-09T05:14:16.818Z,16.10
2023-09-09T05:16:45.409Z,15.93
2023-09-09T05:19:14.010Z,16.02
2023-09-09T05:21:42.374Z,16.33
2023-09-09T05:24:12.414Z,16.60
2023-09-09T05:26:41.136Z,15.90
2023-09-09T05:29:09.735Z,18.20
2023-09-09T05:31:40.665Z,18.50
2023-09-09T05:34:09.310Z,18.75
2023-09-09T05:36:37.723Z,18.33
2023-09-09T05:39:06.625Z,18.05
2023-09-09T05:41:36.178Z,16.98
2023-09-09T05:44:06.969Z,16.30
2023-09-09T05:46:37.212Z,16.55
2023-09-09T05:49:06.102Z,15.30
2023-09-09T05:51:34.427Z,15.23
2023-09-09T05:54:03.152Z,15.63
2023-09-09T05:56:33.729Z,14.93
2023-09-09T05:59:08.296Z,15.27
2023-09-09T06:01:37.040Z,16.08
2023-09-09T06:04:06.008Z,15.43
2023-09-09T06:06:34.359Z,14.38
2023-09-09T06:09:03.501Z,15.63
2023-09-09T06:11:33.956Z,15.45
2023-09-09T06:14:03.740Z,15.43
2023-09-09T06:16:33.107Z,15.05
2023-09-09T06:19:01.815Z,15.93
2023-09-09T06:21:30.129Z,15.27
2023-09-09T06:24:00.797Z,16.45
2023-09-09T06:26:34.172Z,16.00
2023-09-09T06:29:05.219Z,16.25
2023-09-09T06:31:33.741Z,16.60
2023-09-09T06:34:02.482Z,16.10
2023-09-09T06:36:30.864Z,17.58
2023-09-09T06:38:59.547Z,16.40
2023-09-09T06:41:27.891Z,17.80
2023-09-09T06:43:56.362Z,21.17
2023-09-09T06:46:26.169Z,20.00
2023-09-09T06:48:54.832Z,17.80
2023-09-09T06:51:24.644Z,17.52
2023-09-09T06:53:53.207Z,19.58
2023-09-09T06:56:21.981Z,15.38
2023-09-09T06:58:51.352Z,16.30
2023-09-09T07:01:20.085Z,16.42
2023-09-09T07:03:50.175Z,17.80
2023-09-09T07:06:18.493Z,17.75
2023-09-09T07:08:48.749Z,17.75
2023-09-09T07:11:17.220Z,15.82
2023-09-09T07:13:46.294Z,18.63
2023-09-09T07:16:14.850Z,17.60
2023-09-09T07:18:44.244Z,17.40
2023-09-09T07:21:14.061Z,16.67
2023-09-09T07:23:42.560Z,17.60
2023-09-09T07:26:12.352Z,16.90
2023-09-09T07:28:41.060Z,15.88
2023-09-09T07:31:10.082Z,16.02
2023-09-09T07:33:38.714Z,14.85
2023-09-09T07:36:07.333Z,16.13
2023-09-09T07:38:37.019Z,14.82
2023-09-09T07:41:05.618Z,15.07
2023-09-09T07:43:34.244Z,14.93
2023-09-09T07:46:05.201Z,14.85
2023-09-09T07:48:34.154Z,14.68
2023-09-09T07:51:02.812Z,14.52
2023-09-09T07:53:31.378Z,14.57
2023-09-09T07:56:02.283Z,13.43
2023-09-09T07:58:30.677Z,13.75
2023-09-09T08:01:09.323Z,12.60
2023-09-09T08:03:38.226Z,13.82
2023-09-09T08:06:07.923Z,13.38
2023-09-09T08:08:40.121Z,13.40
2023-09-09T08:11:09.801Z,14.25
2023-09-09T08:13:38.410Z,13.65
2023-09-09T08:16:07.559Z,12.95
2023-09-09T08:18:35.923Z,13.65
2023-09-09T08:21:04.463Z,13.82
2023-09-09T08:23:32.929Z,13.32
2023-09-09T08:26:02.602Z,11.13
2023-09-09T08:28:32.337Z,13.02
2023-09-09T08:31:01.072Z,12.05
2023-09-09T08:33:29.631Z,11.93
2023-09-09T08:36:00.273Z,12.52
2023-09-09T08:38:28.952Z,13.30
2023-09-09T08:41:02.625Z,11.93
2023-09-09T08:43:39.995Z,12.15
2023-09-09T08:46:14.944Z,12.75
2023-09-09T08:48:45.602Z,13.07
2023-09-09T08:51:15.741Z,12.70
2023-09-09T08:53:44.278Z,12.48
2023-09-09T08:56:15.098Z,15.30
2023-09-09T08:58:44.370Z,15.23
2023-09-09T09:01:14.114Z,13.90
2023-09-09T09:03:43.059Z,12.88
2023-09-09T09:06:11.810Z,12.80
2023-09-09T09:08:40.140Z,13.18
2023-09-09T09:11:09.492Z,13.38
2023-09-09T09:13:38.200Z,14.18
2023-09-09T09:16:08.515Z,12.23
2023-09-09T09:18:37.476Z,12.60
2023-09-09T09:21:09.368Z,12.45
2023-09-09T09:23:44.506Z,13.40
2023-09-09T09:26:27.954Z,12.52
2023-09-09T09:28:56.580Z,13.30
2023-09-09T09:31:27.869Z,13.18
2023-09-09T09:33:57.520Z,13.90
2023-09-09T09:36:26.706Z,12.98
2023-09-09T09:38:56.221Z,12.85
2023-09-09T09:41:24.815Z,12.50
2023-09-09T09:43:54.472Z,12.55
2023-09-09T09:46:23.718Z,12.43
2023-09-09T09:48:53.190Z,12.98
2023-09-09T09:51:21.764Z,12.93
2023-09-09T09:53:54.964Z,12.25
2023-09-09T09:56:27.084Z,12.75
2023-09-09T09:58:58.445Z,11.32
2023-09-09T10:01:26.997Z,13.38
2023-09-09T10:04:00.088Z,12.50
2023-09-09T10:06:29.751Z,12.40
2023-09-09T10:09:04.504Z,11.90
2023-09-09T10:11:38.352Z,13.48
2023-09-09T10:14:17.043Z,12.27
2023-09-09T10:16:46.124Z,12.52
2023-09-09T10:19:18.650Z,12.88
2023-09-09T10:21:49.007Z,12.38
2023-09-09T10:24:17.560Z,11.60
2023-09-09T10:26:46.320Z,12.90
2023-09-09T10:29:17.061Z,11.77
2023-09-09T10:31:47.107Z,12.38
2023-09-09T10:34:19.246Z,13.57
2023-09-09T10:37:01.118Z,12.25
2023-09-09T10:39:31.155Z,12.88
2023-09-09T10:42:05.222Z,11.85
2023-09-09T10:44:33.559Z,12.45
2023-09-09T10:47:01.963Z,12.43
2023-09-09T10:49:34.002Z,11.52
2023-09-09T10:52:05.210Z,11.73
2023-09-09T10:54:40.728Z,12.43
2023-09-09T10:57:09.643Z,12.73
2023-09-09T10:59:38.788Z,12.23
2023-09-09T11:02:28.255Z,11.50
2023-09-09T11:05:10.866Z,10.60
2023-09-09T11:07:44.255Z,11.13
2023-09-09T11:10:20.761Z,11.85
2023-09-09T11:12:54.993Z,10.18
2023-09-09T11:15:27.955Z,12.18
2023-09-09T11:17:56.430Z,11.15
2023-09-09T11:20:26.996Z,11.43
2023-09-09T11:22:55.672Z,11.20
2023-09-09T11:25:27.719Z,11.13
2023-09-09T11:27:56.257Z,10.23
2023-09-09T11:30:26.516Z,10.80
2023-09-09T11:32:57.482Z,11.70
2023-09-09T11:35:27.903Z,10.48
2023-09-09T11:38:04.805Z,11.07
2023-09-09T11:40:35.326Z,10.25
2023-09-09T11:43:03.769Z,9.43
2023-09-09T11:45:36.370Z,9.48
2023-09-09T11:48:05.702Z,10.77
2023-09-09T11:50:43.825Z,8.50
2023-09-09T11:53:13.426Z,9.95
2023-09-09T11:55:42.426Z,9.30
2023-09-09T11:58:11.234Z,8.80
2023-09-09T12:00:42.185Z,8.48
2023-09-09T12:03:10.578Z,6.88
2023-09-09T12:05:39.310Z,7.22
2023-09-09T12:08:09.154Z,6.93
2023-09-09T12:10:39.617Z,7.13
2023-09-09T12:13:08.278Z,6.78
2023-09-09T12:15:40.224Z,6.93
2023-09-09T12:18:14.556Z,7.18
2023-09-09T12:23:36.421Z,8.35
2023-09-09T12:26:14.512Z,7.80
2023-09-09T12:28:43.256Z,7.70
2023-09-09T12:31:12.291Z,8.65
2023-09-09T12:33:43.833Z,9.38
2023-09-09T12:36:19.564Z,7.80
2023-09-09T12:38:51.977Z,7.95
2023-09-09T12:41:28.203Z,8.15
2023-09-09T12:43:57.384Z,8.32
2023-09-09T12:46:28.625Z,8.48
2023-09-09T12:48:58.097Z,7.70
2023-09-09T12:51:27.747Z,7.57
2023-09-09T12:54:00.532Z,7.57
2023-09-09T12:56:31.240Z,7.55
2023-09-09T12:58:59.844Z,7.72
2023-09-09T13:01:28.460Z,8.02
2023-09-09T13:03:56.888Z,7.32
2023-09-09T13:06:25.247Z,7.38
2023-09-09T13:08:53.545Z,7.80
2023-09-09T13:11:24.663Z,7.13
2023-09-09T13:14:01.552Z,6.65
2023-09-09T13:16:44.631Z,6.57
2023-09-09T13:19:13.166Z,7.05
2023-09-09T13:21:41.457Z,6.80
2023-09-09T13:24:09.763Z,6.82
2023-09-09T13:26:39.234Z,6.82
2023-09-09T13:29:07.610Z,7.15
2023-09-09T13:31:36.010Z,6.10
2023-09-09T13:34:04.722Z,8.10
2023-09-09T13:36:33.219Z,7.55
2023-09-09T13:39:01.568Z,6.55
2023-09-09T13:41:31.212Z,7.50
2023-09-09T13:44:06.277Z,7.00
2023-09-09T13:46:34.647Z,9.93
2023-09-09T13:49:03.013Z,7.05
2023-09-09T13:51:31.534Z,6.60
2023-09-09T13:54:00.395Z,6.45
2023-09-09T13:56:31.621Z,6.40
2023-09-09T13:59:00.455Z,6.43
2023-09-09T14:01:30.287Z,6.45
2023-09-09T14:04:00.341Z,6.20
2023-09-09T14:06:29.838Z,5.80
2023-09-09T14:09:03.688Z,6.60
2023-09-09T14:11:34.206Z,5.95
2023-09-09T14:14:02.526Z,5.68
2023-09-09T14:16:31.991Z,5.88
2023-09-09T14:19:00.338Z,6.13
2023-09-09T14:21:31.908Z,5.25
2023-09-09T14:24:01.888Z,5.88
2023-09-09T14:26:30.384Z,5.18
2023-09-09T14:28:58.746Z,5.60
2023-09-09T14:31:27.665Z,6.00
2023-09-09T14:33:58.362Z,5.25
2023-09-09T14:36:27.296Z,5.57
2023-09-09T14:38:55.580Z,5.20
2023-09-09T14:41:24.037Z,5.68
2023-09-09T14:43:54.404Z,5.30
2023-09-09T14:46:31.580Z,5.57
2023-09-09T14:49:04.078Z,5.13
2023-09-09T14:51:37.551Z,5.25
2023-09-09T14:54:07.529Z,5.20
2023-09-09T14:56:35.888Z,5.47
2023-09-09T14:59:04.472Z,5.55
2023-09-09T15:01:34.160Z,5.32
2023-09-09T15:04:03.947Z,5.50
2023-09-09T15:06:33.782Z,5.28
2023-09-09T15:09:02.499Z,5.28
2023-09-09T15:11:31.486Z,5.32
2023-09-09T15:14:01.043Z,5.30
2023-09-09T15:16:49.170Z,5.00
2023-09-09T15:19:24.087Z,4.88
2023-09-09T15:21:52.544Z,4.97
2023-09-09T15:24:20.911Z,4.93
2023-09-09T15:26:49.687Z,4.47
2023-09-09T15:29:18.020Z,5.20
2023-09-09T15:31:50.516Z,4.97
2023-09-09T15:34:21.488Z,4.90
2023-09-09T15:36:49.867Z,4.30
2023-09-09T15:39:20.627Z,4.75
2023-09-09T15:41:49.401Z,4.75
2023-09-09T15:44:20.203Z,4.50
2023-09-09T15:46:49.642Z,4.22
2023-09-09T15:49:18.713Z,4.53
2023-09-09T15:51:48.154Z,4.90
2023-09-09T15:54:16.380Z,4.45
2023-09-09T15:56:44.759Z,5.10
2023-09-09T15:59:15.021Z,4.95
2023-09-09T16:01:43.874Z,4.50
2023-09-09T16:04:12.577Z,4.95
2023-09-09T16:06:41.045Z,6.30
2023-09-09T16:09:12.134Z,4.53
2023-09-09T16:11:40.604Z,5.05
2023-09-09T16:14:09.800Z,5.20
2023-09-09T16:17:00.467Z,5.55
2023-09-09T16:19:28.980Z,4.78
2023-09-09T16:21:57.504Z,5.13
2023-09-09T16:24:25.803Z,5.40
2023-09-09T16:26:56.325Z,5.40
2023-09-09T16:29:25.060Z,5.45
2023-09-09T16:31:54.793Z,7.68
2023-09-09T16:34:24.707Z,5.55
2023-09-09T16:36:55.322Z,5.85
2023-09-09T16:41:53.287Z,5.95
2023-09-09T16:44:21.537Z,5.85
2023-09-09T16:46:56.112Z,5.90
2023-09-09T16:49:26.666Z,7.60
2023-09-09T16:51:55.396Z,6.85
2023-09-09T16:54:23.654Z,6.63
2023-09-09T16:56:53.658Z,6.85
2023-09-09T16:59:22.147Z,6.93
2023-09-09T17:01:55.341Z,6.15
2023-09-09T17:04:24.402Z,9.00
2023-09-09T17:06:56.832Z,12.73
2023-09-09T17:09:25.307Z,8.63
2023-09-09T17:11:54.715Z,11.13
2023-09-09T17:14:22.967Z,7.57
2023-09-09T17:16:52.015Z,7.70
2023-09-09T17:19:20.378Z,7.35
2023-09-09T17:21:56.376Z,7.97
2023-09-09T17:24:28.211Z,8.60
2023-09-09T17:26:59.489Z,7.53
2023-09-09T17:29:33.091Z,6.35
2023-09-09T17:32:03.527Z,7.57
2023-09-09T17:34:41.510Z,7.13
2023-09-09T17:37:11.889Z,6.28
2023-09-09T17:39:43.758Z,6.53
2023-09-09T17:42:12.322Z,6.75
2023-09-09T17:44:45.620Z,7.13
2023-09-09T17:47:14.951Z,7.35
2023-09-09T17:49:46.886Z,8.65
2023-09-09T17:52:16.435Z,9.05
2023-09-09T17:54:46.490Z,8.98
2023-09-09T17:57:14.969Z,9.00
2023-09-09T17:59:45.068Z,19.92
2023-09-09T18:02:14.383Z,10.82
2023-09-09T18:04:43.079Z,12.13
2023-09-09T18:07:12.958Z,12.85
2023-09-09T18:09:41.541Z,11.05
2023-09-09T18:12:12.553Z,9.82
2023-09-09T18:14:40.836Z,11.13
2023-09-09T18:17:09.753Z,9.77
2023-09-09T18:19:40.431Z,11.20
2023-09-09T18:22:11.319Z,9.90
2023-09-09T18:24:40.677Z,9.57
2023-09-09T18:27:11.523Z,10.48
2023-09-09T18:29:42.632Z,11.05
2023-09-09T18:32:11.240Z,9.55
2023-09-09T18:34:44.361Z,8.88
2023-09-09T18:37:12.620Z,10.77
2023-09-09T18:39:41.487Z,17.88
2023-09-09T18:42:10.952Z,16.65
2023-09-09T18:44:41.020Z,15.93
2023-09-09T18:47:09.867Z,15.68
2023-09-09T18:49:42.224Z,13.70
2023-09-09T18:52:10.524Z,13.25
2023-09-09T18:54:38.848Z,11.23
2023-09-09T18:57:10.076Z,12.02
2023-09-09T18:59:39.914Z,12.55
2023-09-09T19:02:10.087Z,12.73
2023-09-09T19:04:41.257Z,15.00
2023-09-09T19:07:12.934Z,14.50
2023-09-09T19:09:44.876Z,13.68
2023-09-09T19:12:14.774Z,11.50
2023-09-09T19:14:43.549Z,11.70
2023-09-09T19:17:12.892Z,13.90
2023-09-09T19:19:42.328Z,11.98
2023-09-09T19:22:10.600Z,11.95
2023-09-09T19:24:38.928Z,11.90
2023-09-09T19:27:07.453Z,10.35
2023-09-09T19:29:36.436Z,10.95
2023-09-09T19:32:10.097Z,11.35
2023-09-09T19:34:49.588Z,11.57
2023-09-09T19:37:18.050Z,11.25
2023-09-09T19:39:48.741Z,11.43
2023-09-09T19:42:17.799Z,11.27
2023-09-09T19:44:46.537Z,17.38
2023-09-09T19:47:14.809Z,12.32
2023-09-09T19:49:44.849Z,12.43
2023-09-09T19:52:21.330Z,13.38
2023-09-09T19:54:51.588Z,25.70
2023-09-09T19:57:27.605Z,31.63
2023-09-09T19:59:56.217Z,16.08
2023-09-09T20:02:24.793Z,25.13
2023-09-09T20:04:56.626Z,15.98
2023-09-09T20:07:26.193Z,13.57
2023-09-09T20:09:54.856Z,12.27
2023-09-09T20:12:23.682Z,10.85
2023-09-09T20:14:54.963Z,16.48
2023-09-09T20:17:23.266Z,18.42
2023-09-09T20:19:53.279Z,17.35
2023-09-09T20:22:23.140Z,16.67
2023-09-09T20:24:57.542Z,14.80
2023-09-09T20:27:33.347Z,14.52
2023-09-09T20:30:02.161Z,13.10
2023-09-09T20:32:30.797Z,13.35
2023-09-09T20:35:09.257Z,13.95
2023-09-09T20:37:49.960Z,14.63
2023-09-09T20:40:22.347Z,13.73
2023-09-09T20:42:56.611Z,13.82
2023-09-09T20:45:27.445Z,14.43
2023-09-09T20:48:00.635Z,14.85
2023-09-09T20:50:34.956Z,14.52
2023-09-09T20:53:06.400Z,15.88
2023-09-09T20:55:37.404Z,16.73
2023-09-09T20:58:06.651Z,15.68
2023-09-09T21:00:35.265Z,15.68
2023-09-09T21:03:17.080Z,14.80
2023-09-09T21:05:46.668Z,13.60
2023-09-09T21:08:16.158Z,14.45
2023-09-09T21:10:45.469Z,14.63
2023-09-09T21:13:15.019Z,15.50
2023-09-09T21:15:45.098Z,14.15
2023-09-09T21:18:16.100Z,14.07
2023-09-09T21:20:44.632Z,14.55
2023-09-09T21:23:12.962Z,15.45
2023-09-09T21:25:42.605Z,14.73
2023-09-09T21:28:12.181Z,13.65
2023-09-09T21:30:42.229Z,13.55
2023-09-09T21:33:11.026Z,15.75
2023-09-09T21:35:39.645Z,18.13
2023-09-09T21:38:07.942Z,17.48
2023-09-09T21:40:37.082Z,19.40
2023-09-09T21:43:06.738Z,17.77
2023-09-09T21:45:38.195Z,16.05
2023-09-09T21:48:08.941Z,14.95
2023-09-09T21:50:38.108Z,15.57
2023-09-09T21:53:06.832Z,15.63
2023-09-09T21:55:36.866Z,15.27
2023-09-09T21:58:06.318Z,14.40
2023-09-09T22:00:35.188Z,14.43
2023-09-09T22:03:04.247Z,13.70
2023-09-09T22:05:32.964Z,14.32
2023-09-09T22:08:01.796Z,13.40
2023-09-09T22:10:32.102Z,13.30
2023-09-09T22:13:01.580Z,13.80
2023-09-09T22:15:36.460Z,15.18
2023-09-09T22:18:05.136Z,15.43
2023-09-09T22:20:33.865Z,14.73
2023-09-09T22:23:02.657Z,14.65
2023-09-09T22:25:32.237Z,15.13
2023-09-09T22:28:02.108Z,15.25
2023-09-09T22:30:30.402Z,14.98
2023-09-09T22:33:00.192Z,16.25
2023-09-09T22:35:30.195Z,15.10
2023-09-09T22:38:01.799Z,14.88
2023-09-09T22:40:30.480Z,14.75
2023-09-09T22:42:59.083Z,14.77
2023-09-09T22:45:27.738Z,14.77
2023-09-09T22:48:03.898Z,14.10
2023-09-09T22:50:33.959Z,13.82
2023-09-09T22:53:04.111Z,14.20
2023-09-09T22:55:32.567Z,13.93
2023-09-09T22:58:03.564Z,14.57
2023-09-09T23:00:32.195Z,14.82
2023-09-09T23:03:03.481Z,16.00
2023-09-09T23:05:31.921Z,15.38
2023-09-09T23:08:01.739Z,15.63
2023-09-09T23:10:33.982Z,15.65
2023-09-09T23:13:03.917Z,16.17
2023-09-09T23:15:33.771Z,15.15
2023-09-09T23:18:02.102Z,15.18
2023-09-09T23:20:33.391Z,15.43
2023-09-09T23:23:03.944Z,15.02
2023-09-09T23:25:33.791Z,14.45
2023-09-09T23:28:02.538Z,13.85
2023-09-09T23:30:31.994Z,14.38
2023-09-09T23:33:01.286Z,14.57
2023-09-09T23:35:33.856Z,15.48
2023-09-09T23:38:04.539Z,13.57
2023-09-09T23:40:33.867Z,14.02
2023-09-09T23:43:02.380Z,13.40
2023-09-09T23:45:30.762Z,14.07
2023-09-09T23:48:01.311Z,13.02
2023-09-09T23:50:33.378Z,13.27
2023-09-09T23:53:05.369Z,13.32
2023-09-09T23:55:35.428Z,12.63
2023-09-09T23:58:04.116Z,12.30
